sensor_id;sensor_type;location;lat;lon;timestamp;temperature;humidity
41926;DHT22;27615;51.826;5.692;2023-03-31T00:01:36;11.10;99.90
41926;DHT22;27615;51.826;5.692;2023-03-31T00:04:06;11.10;99.90
41926;DHT22;27615;51.826;5.692;2023-03-31T00:06:35;11.10;99.90
41926;DHT22;27615;51.826;5.692;2023-03-31T00:09:07;11.00;99.90
41926;DHT22;27615;51.826;5.692;2023-03-31T00:11:33;11.10;99.90
41926;DHT22;27615;51.826;5.692;2023-03-31T00:13:58;11.00;99.90
41926;DHT22;27615;51.826;5.692;2023-03-31T00:16:24;11.00;99.90
41926;DHT22;27615;51.826;5.692;2023-03-31T00:18:50;11.00;99.90
41926;DHT22;27615;51.826;5.692;2023-03-31T00:21:21;11.00;99.90
41926;DHT22;27615;51.826;5.692;2023-03-31T00:23:52;11.10;99.90
41926;DHT22;27615;51.826;5.692;2023-03-31T00:26:18;11.00;99.90
41926;DHT22;27615;51.826;5.692;2023-03-31T00:28:43;11.10;99.90
41926;DHT22;27615;51.826;5.692;2023-03-31T00:31:09;11.10;99.90
41926;DHT22;27615;51.826;5.692;2023-03-31T00:33:35;11.10;99.90
41926;DHT22;27615;51.826;5.692;2023-03-31T00:36:00;11.10;99.90
41926;DHT22;27615;51.826;5.692;2023-03-31T00:38:27;11.10;99.90
41926;DHT22;27615;51.826;5.692;2023-03-31T00:40:54;11.10;99.90
41926;DHT22;27615;51.826;5.692;2023-03-31T00:43:29;11.10;99.90
41926;DHT22;27615;51.826;5.692;2023-03-31T00:48:28;11.00;99.90
41926;DHT22;27615;51.826;5.692;2023-03-31T00:50:55;11.00;99.90
41926;DHT22;27615;51.826;5.692;2023-03-31T00:53:25;10.90;99.90
41926;DHT22;27615;51.826;5.692;2023-03-31T00:55:55;10.90;99.90
41926;DHT22;27615;51.826;5.692;2023-03-31T00:58:23;10.80;99.90
41926;DHT22;27615;51.826;5.692;2023-03-31T01:00:54;10.80;99.90
41926;DHT22;27615;51.826;5.692;2023-03-31T01:03:20;10.80;99.90
41926;DHT22;27615;51.826;5.692;2023-03-31T01:05:53;10.70;99.90
41926;DHT22;27615;51.826;5.692;2023-03-31T01:08:23;10.70;99.90
41926;DHT22;27615;51.826;5.692;2023-03-31T01:10:55;10.70;99.90
41926;DHT22;27615;51.826;5.692;2023-03-31T01:13:22;10.70;99.90
41926;DHT22;27615;51.826;5.692;2023-03-31T01:15:49;10.70;99.90
41926;DHT22;27615;51.826;5.692;2023-03-31T01:18:16;10.70;99.90
41926;DHT22;27615;51.826;5.692;2023-03-31T01:35:00;10.60;99.90
41926;DHT22;27615;51.826;5.692;2023-03-31T01:46:01;10.60;99.90
41926;DHT22;27615;51.826;5.692;2023-03-31T01:48:49;10.60;99.90
41926;DHT22;27615;51.826;5.692;2023-03-31T01:51:42;10.60;99.90
41926;DHT22;27615;51.826;5.692;2023-03-31T01:54:23;10.60;99.90
41926;DHT22;27615;51.826;5.692;2023-03-31T01:57:02;10.60;99.90
41926;DHT22;27615;51.826;5.692;2023-03-31T01:59:40;10.60;99.90
41926;DHT22;27615;51.826;5.692;2023-03-31T02:02:12;10.60;99.90
41926;DHT22;27615;51.826;5.692;2023-03-31T02:04:45;10.60;99.90
41926;DHT22;27615;51.826;5.692;2023-03-31T02:07:15;10.60;99.90
41926;DHT22;27615;51.826;5.692;2023-03-31T02:09:44;10.60;99.90
41926;DHT22;27615;51.826;5.692;2023-03-31T02:12:12;10.60;99.90
41926;DHT22;27615;51.826;5.692;2023-03-31T02:14:42;10.60;99.90
41926;DHT22;27615;51.826;5.692;2023-03-31T02:17:14;10.70;99.90
41926;DHT22;27615;51.826;5.692;2023-03-31T02:19:43;10.70;99.90
41926;DHT22;27615;51.826;5.692;2023-03-31T02:22:11;10.70;99.90
41926;DHT22;27615;51.826;5.692;2023-03-31T02:24:37;10.70;99.90
41926;DHT22;27615;51.826;5.692;2023-03-31T02:27:30;10.70;99.90
41926;DHT22;27615;51.826;5.692;2023-03-31T02:29:58;10.80;99.90
41926;DHT22;27615;51.826;5.692;2023-03-31T02:34:54;10.80;99.90
41926;DHT22;27615;51.826;5.692;2023-03-31T02:37:20;10.80;99.90
41926;DHT22;27615;51.826;5.692;2023-03-31T02:39:48;10.80;99.90
41926;DHT22;27615;51.826;5.692;2023-03-31T02:42:15;10.80;99.90
41926;DHT22;27615;51.826;5.692;2023-03-31T02:44:41;10.80;99.90
41926;DHT22;27615;51.826;5.692;2023-03-31T02:47:10;10.80;99.90
41926;DHT22;27615;51.826;5.692;2023-03-31T02:49:38;10.80;99.90
41926;DHT22;27615;51.826;5.692;2023-03-31T03:02:34;10.80;99.90
41926;DHT22;27615;51.826;5.692;2023-03-31T03:15:58;10.80;99.90
41926;DHT22;27615;51.826;5.692;2023-03-31T03:18:25;10.80;99.90
41926;DHT22;27615;51.826;5.692;2023-03-31T03:20:50;10.70;99.90
41926;DHT22;27615;51.826;5.692;2023-03-31T03:23:17;10.70;99.90
41926;DHT22;27615;51.826;5.692;2023-03-31T03:25:43;10.80;99.90
41926;DHT22;27615;51.826;5.692;2023-03-31T03:28:09;10.80;99.90
41926;DHT22;27615;51.826;5.692;2023-03-31T03:30:35;10.70;99.90
41926;DHT22;27615;51.826;5.692;2023-03-31T03:33:01;10.70;99.90
41926;DHT22;27615;51.826;5.692;2023-03-31T03:35:27;10.80;99.90
41926;DHT22;27615;51.826;5.692;2023-03-31T03:37:53;10.80;99.90
41926;DHT22;27615;51.826;5.692;2023-03-31T03:40:18;10.70;99.90
41926;DHT22;27615;51.826;5.692;2023-03-31T03:42:44;10.70;99.90
41926;DHT22;27615;51.826;5.692;2023-03-31T03:45:10;10.80;99.90
41926;DHT22;27615;51.826;5.692;2023-03-31T03:47:35;10.80;99.90
41926;DHT22;27615;51.826;5.692;2023-03-31T03:50:02;10.80;99.90
41926;DHT22;27615;51.826;5.692;2023-03-31T03:52:28;10.80;99.90
41926;DHT22;27615;51.826;5.692;2023-03-31T03:54:54;10.70;99.90
41926;DHT22;27615;51.826;5.692;2023-03-31T03:57:20;10.60;99.90
41926;DHT22;27615;51.826;5.692;2023-03-31T03:59:45;10.60;99.90
41926;DHT22;27615;51.826;5.692;2023-03-31T04:02:11;10.60;99.90
41926;DHT22;27615;51.826;5.692;2023-03-31T04:04:36;10.60;99.90
41926;DHT22;27615;51.826;5.692;2023-03-31T04:07:02;10.50;99.90
41926;DHT22;27615;51.826;5.692;2023-03-31T04:09:28;10.50;99.90
41926;DHT22;27615;51.826;5.692;2023-03-31T04:11:53;10.60;99.90
41926;DHT22;27615;51.826;5.692;2023-03-31T04:14:19;10.50;99.90
41926;DHT22;27615;51.826;5.692;2023-03-31T04:16:44;10.50;99.90
41926;DHT22;27615;51.826;5.692;2023-03-31T04:19:12;10.50;99.90
41926;DHT22;27615;51.826;5.692;2023-03-31T04:21:38;10.50;99.90
41926;DHT22;27615;51.826;5.692;2023-03-31T04:24:10;10.50;99.90
41926;DHT22;27615;51.826;5.692;2023-03-31T04:26:40;10.50;99.90
41926;DHT22;27615;51.826;5.692;2023-03-31T04:29:14;10.50;99.90
41926;DHT22;27615;51.826;5.692;2023-03-31T04:31:45;10.50;99.90
41926;DHT22;27615;51.826;5.692;2023-03-31T04:34:13;10.40;99.90
41926;DHT22;27615;51.826;5.692;2023-03-31T04:36:43;10.40;99.90
41926;DHT22;27615;51.826;5.692;2023-03-31T04:39:12;10.40;99.90
41926;DHT22;27615;51.826;5.692;2023-03-31T04:41:37;10.40;99.90
41926;DHT22;27615;51.826;5.692;2023-03-31T04:44:03;10.50;99.90
41926;DHT22;27615;51.826;5.692;2023-03-31T04:46:29;10.40;99.90
41926;DHT22;27615;51.826;5.692;2023-03-31T04:48:55;10.40;99.90
41926;DHT22;27615;51.826;5.692;2023-03-31T04:51:21;10.40;99.90
41926;DHT22;27615;51.826;5.692;2023-03-31T04:53:46;10.40;99.90
41926;DHT22;27615;51.826;5.692;2023-03-31T04:56:12;10.40;99.90
41926;DHT22;27615;51.826;5.692;2023-03-31T04:58:38;10.40;99.90
41926;DHT22;27615;51.826;5.692;2023-03-31T05:01:03;10.40;99.90
41926;DHT22;27615;51.826;5.692;2023-03-31T05:03:32;10.40;99.90
41926;DHT22;27615;51.826;5.692;2023-03-31T05:05:58;10.40;99.90
41926;DHT22;27615;51.826;5.692;2023-03-31T05:08:23;10.30;99.90
41926;DHT22;27615;51.826;5.692;2023-03-31T05:10:51;10.30;99.90
41926;DHT22;27615;51.826;5.692;2023-03-31T05:13:17;10.30;99.90
41926;DHT22;27615;51.826;5.692;2023-03-31T05:15:42;10.30;99.90
41926;DHT22;27615;51.826;5.692;2023-03-31T05:18:10;10.30;99.90
41926;DHT22;27615;51.826;5.692;2023-03-31T05:20:35;10.30;99.90
41926;DHT22;27615;51.826;5.692;2023-03-31T05:23:01;10.30;99.90
41926;DHT22;27615;51.826;5.692;2023-03-31T05:25:27;10.20;99.90
41926;DHT22;27615;51.826;5.692;2023-03-31T05:27:57;10.20;99.90
41926;DHT22;27615;51.826;5.692;2023-03-31T05:30:24;10.20;99.90
41926;DHT22;27615;51.826;5.692;2023-03-31T05:32:50;10.20;99.90
41926;DHT22;27615;51.826;5.692;2023-03-31T05:35:16;10.20;99.90
41926;DHT22;27615;51.826;5.692;2023-03-31T05:37:42;10.30;99.90
41926;DHT22;27615;51.826;5.692;2023-03-31T05:40:08;10.30;99.90
41926;DHT22;27615;51.826;5.692;2023-03-31T05:42:35;10.30;99.90
41926;DHT22;27615;51.826;5.692;2023-03-31T05:45:01;10.30;99.90
41926;DHT22;27615;51.826;5.692;2023-03-31T05:47:26;10.30;99.90
41926;DHT22;27615;51.826;5.692;2023-03-31T05:49:52;10.30;99.90
41926;DHT22;27615;51.826;5.692;2023-03-31T05:52:18;10.30;99.90
41926;DHT22;27615;51.826;5.692;2023-03-31T05:54:43;10.30;99.90
41926;DHT22;27615;51.826;5.692;2023-03-31T05:57:09;10.30;99.90
41926;DHT22;27615;51.826;5.692;2023-03-31T05:59:35;10.30;99.90
41926;DHT22;27615;51.826;5.692;2023-03-31T06:02:01;10.40;99.90
41926;DHT22;27615;51.826;5.692;2023-03-31T06:04:27;10.40;99.90
41926;DHT22;27615;51.826;5.692;2023-03-31T06:06:53;10.40;99.90
41926;DHT22;27615;51.826;5.692;2023-03-31T06:09:20;10.50;99.90
41926;DHT22;27615;51.826;5.692;2023-03-31T06:11:46;10.50;99.90
41926;DHT22;27615;51.826;5.692;2023-03-31T06:14:11;10.60;99.90
41926;DHT22;27615;51.826;5.692;2023-03-31T06:16:37;10.60;99.90
41926;DHT22;27615;51.826;5.692;2023-03-31T06:19:03;10.60;99.90
41926;DHT22;27615;51.826;5.692;2023-03-31T06:21:29;10.60;99.90
41926;DHT22;27615;51.826;5.692;2023-03-31T06:23:54;10.60;99.90
41926;DHT22;27615;51.826;5.692;2023-03-31T06:26:22;10.70;99.90
41926;DHT22;27615;51.826;5.692;2023-03-31T06:28:48;10.70;99.90
41926;DHT22;27615;51.826;5.692;2023-03-31T06:31:17;10.70;99.90
41926;DHT22;27615;51.826;5.692;2023-03-31T06:33:43;10.70;99.90
41926;DHT22;27615;51.826;5.692;2023-03-31T06:36:10;10.70;99.90
41926;DHT22;27615;51.826;5.692;2023-03-31T06:38:36;10.70;99.90
41926;DHT22;27615;51.826;5.692;2023-03-31T06:41:03;10.70;99.90
41926;DHT22;27615;51.826;5.692;2023-03-31T06:43:29;10.70;99.90
41926;DHT22;27615;51.826;5.692;2023-03-31T06:45:55;10.60;99.90
41926;DHT22;27615;51.826;5.692;2023-03-31T06:48:22;10.60;99.90
41926;DHT22;27615;51.826;5.692;2023-03-31T06:50:47;10.60;99.90
41926;DHT22;27615;51.826;5.692;2023-03-31T06:53:13;10.50;99.90
41926;DHT22;27615;51.826;5.692;2023-03-31T06:55:38;10.50;99.90
41926;DHT22;27615;51.826;5.692;2023-03-31T06:58:04;10.50;99.90
41926;DHT22;27615;51.826;5.692;2023-03-31T07:00:31;10.40;99.90
41926;DHT22;27615;51.826;5.692;2023-03-31T07:02:57;10.40;99.90
41926;DHT22;27615;51.826;5.692;2023-03-31T07:05:23;10.40;99.90
41926;DHT22;27615;51.826;5.692;2023-03-31T07:07:53;10.40;99.90
41926;DHT22;27615;51.826;5.692;2023-03-31T07:10:19;10.40;99.90
41926;DHT22;27615;51.826;5.692;2023-03-31T07:12:45;10.40;99.90
41926;DHT22;27615;51.826;5.692;2023-03-31T07:15:11;10.40;99.90
41926;DHT22;27615;51.826;5.692;2023-03-31T07:17:36;10.30;99.90
41926;DHT22;27615;51.826;5.692;2023-03-31T07:20:07;10.30;99.90
41926;DHT22;27615;51.826;5.692;2023-03-31T07:22:50;10.30;99.90
41926;DHT22;27615;51.826;5.692;2023-03-31T07:25:16;10.30;99.90
41926;DHT22;27615;51.826;5.692;2023-03-31T07:27:43;10.30;99.90
41926;DHT22;27615;51.826;5.692;2023-03-31T07:30:14;10.30;99.90
41926;DHT22;27615;51.826;5.692;2023-03-31T07:32:40;10.30;99.90
41926;DHT22;27615;51.826;5.692;2023-03-31T07:35:08;10.30;99.90
41926;DHT22;27615;51.826;5.692;2023-03-31T07:37:38;10.30;99.90
41926;DHT22;27615;51.826;5.692;2023-03-31T07:40:05;10.30;99.90
41926;DHT22;27615;51.826;5.692;2023-03-31T07:42:32;10.40;99.90
41926;DHT22;27615;51.826;5.692;2023-03-31T07:44:57;10.40;99.90
41926;DHT22;27615;51.826;5.692;2023-03-31T07:47:23;10.50;99.90
41926;DHT22;27615;51.826;5.692;2023-03-31T07:49:49;10.50;99.90
41926;DHT22;27615;51.826;5.692;2023-03-31T07:52:15;10.60;99.90
41926;DHT22;27615;51.826;5.692;2023-03-31T07:54:41;10.70;99.90
41926;DHT22;27615;51.826;5.692;2023-03-31T07:57:08;10.80;99.90
41926;DHT22;27615;51.826;5.692;2023-03-31T07:59:34;10.80;99.90
41926;DHT22;27615;51.826;5.692;2023-03-31T08:02:00;10.90;99.90
41926;DHT22;27615;51.826;5.692;2023-03-31T08:04:26;10.90;99.90
41926;DHT22;27615;51.826;5.692;2023-03-31T08:06:51;11.00;99.90
41926;DHT22;27615;51.826;5.692;2023-03-31T08:09:17;11.10;99.90
41926;DHT22;27615;51.826;5.692;2023-03-31T08:11:44;11.10;99.90
41926;DHT22;27615;51.826;5.692;2023-03-31T08:14:09;11.20;99.90
41926;DHT22;27615;51.826;5.692;2023-03-31T08:16:35;11.20;99.90
41926;DHT22;27615;51.826;5.692;2023-03-31T08:19:01;11.30;99.90
41926;DHT22;27615;51.826;5.692;2023-03-31T08:21:29;11.40;99.90
41926;DHT22;27615;51.826;5.692;2023-03-31T08:23:55;11.50;99.90
41926;DHT22;27615;51.826;5.692;2023-03-31T08:26:22;11.50;99.90
41926;DHT22;27615;51.826;5.692;2023-03-31T08:28:50;11.60;99.90
41926;DHT22;27615;51.826;5.692;2023-03-31T08:31:18;11.70;99.90
41926;DHT22;27615;51.826;5.692;2023-03-31T08:33:44;11.80;99.90
41926;DHT22;27615;51.826;5.692;2023-03-31T08:36:10;11.90;99.90
41926;DHT22;27615;51.826;5.692;2023-03-31T08:38:37;11.90;99.90
41926;DHT22;27615;51.826;5.692;2023-03-31T08:41:05;12.00;99.90
41926;DHT22;27615;51.826;5.692;2023-03-31T08:43:42;12.00;99.90
41926;DHT22;27615;51.826;5.692;2023-03-31T08:46:14;12.10;99.90
41926;DHT22;27615;51.826;5.692;2023-03-31T08:48:47;12.00;99.90
41926;DHT22;27615;51.826;5.692;2023-03-31T08:51:19;12.00;99.90
41926;DHT22;27615;51.826;5.692;2023-03-31T08:54:06;11.90;99.90
41926;DHT22;27615;51.826;5.692;2023-03-31T08:56:37;11.90;99.90
41926;DHT22;27615;51.826;5.692;2023-03-31T08:59:05;11.80;99.90
41926;DHT22;27615;51.826;5.692;2023-03-31T09:06:57;11.90;99.90
41926;DHT22;27615;51.826;5.692;2023-03-31T09:09:38;11.90;99.90
41926;DHT22;27615;51.826;5.692;2023-03-31T09:12:14;11.90;99.90
41926;DHT22;27615;51.826;5.692;2023-03-31T09:17:29;12.10;99.90
41926;DHT22;27615;51.826;5.692;2023-03-31T09:20:11;12.20;99.90
41926;DHT22;27615;51.826;5.692;2023-03-31T09:22:45;12.20;99.90
41926;DHT22;27615;51.826;5.692;2023-03-31T09:25:20;12.30;99.90
41926;DHT22;27615;51.826;5.692;2023-03-31T09:27:49;12.40;99.90
41926;DHT22;27615;51.826;5.692;2023-03-31T09:30:26;12.50;99.90
41926;DHT22;27615;51.826;5.692;2023-03-31T09:33:11;12.60;99.90
41926;DHT22;27615;51.826;5.692;2023-03-31T09:35:38;12.60;99.90
41926;DHT22;27615;51.826;5.692;2023-03-31T09:38:03;12.80;99.90
41926;DHT22;27615;51.826;5.692;2023-03-31T09:40:29;12.80;99.90
41926;DHT22;27615;51.826;5.692;2023-03-31T09:43:20;12.90;99.90
41926;DHT22;27615;51.826;5.692;2023-03-31T09:45:46;13.10;99.90
41926;DHT22;27615;51.826;5.692;2023-03-31T09:48:20;13.10;99.90
41926;DHT22;27615;51.826;5.692;2023-03-31T09:50:59;13.30;99.90
41926;DHT22;27615;51.826;5.692;2023-03-31T09:56:10;13.30;99.90
41926;DHT22;27615;51.826;5.692;2023-03-31T09:58:44;13.30;99.90
41926;DHT22;27615;51.826;5.692;2023-03-31T10:01:12;13.30;99.90
41926;DHT22;27615;51.826;5.692;2023-03-31T10:03:50;13.30;99.90
41926;DHT22;27615;51.826;5.692;2023-03-31T10:06:16;13.30;99.90
41926;DHT22;27615;51.826;5.692;2023-03-31T10:08:51;13.30;99.90
41926;DHT22;27615;51.826;5.692;2023-03-31T10:11:18;13.30;99.90
41926;DHT22;27615;51.826;5.692;2023-03-31T10:14:03;13.30;99.90
41926;DHT22;27615;51.826;5.692;2023-03-31T10:16:33;13.30;99.90
41926;DHT22;27615;51.826;5.692;2023-03-31T10:21:45;13.20;99.90
41926;DHT22;27615;51.826;5.692;2023-03-31T10:24:11;13.20;99.90
41926;DHT22;27615;51.826;5.692;2023-03-31T10:26:37;13.40;99.90
41926;DHT22;27615;51.826;5.692;2023-03-31T10:29:11;13.50;99.90
41926;DHT22;27615;51.826;5.692;2023-03-31T10:31:37;13.60;99.90
41926;DHT22;27615;51.826;5.692;2023-03-31T10:34:08;13.60;99.90
41926;DHT22;27615;51.826;5.692;2023-03-31T10:36:37;13.70;99.90
41926;DHT22;27615;51.826;5.692;2023-03-31T10:39:05;13.90;99.90
41926;DHT22;27615;51.826;5.692;2023-03-31T10:41:32;14.10;99.90
41926;DHT22;27615;51.826;5.692;2023-03-31T10:43:59;14.20;99.90
41926;DHT22;27615;51.826;5.692;2023-03-31T10:46:47;14.20;99.90
41926;DHT22;27615;51.826;5.692;2023-03-31T10:49:26;14.20;99.90
41926;DHT22;27615;51.826;5.692;2023-03-31T10:51:57;14.20;99.90
41926;DHT22;27615;51.826;5.692;2023-03-31T10:54:23;14.20;99.90
41926;DHT22;27615;51.826;5.692;2023-03-31T10:56:57;14.20;99.90
41926;DHT22;27615;51.826;5.692;2023-03-31T11:00:07;14.20;99.90
41926;DHT22;27615;51.826;5.692;2023-03-31T11:08:23;14.00;99.90
41926;DHT22;27615;51.826;5.692;2023-03-31T11:13:51;14.00;99.90
41926;DHT22;27615;51.826;5.692;2023-03-31T11:19:37;14.00;99.90
41926;DHT22;27615;51.826;5.692;2023-03-31T11:22:24;14.00;99.90
41926;DHT22;27615;51.826;5.692;2023-03-31T11:25:06;14.00;99.90
41926;DHT22;27615;51.826;5.692;2023-03-31T11:27:56;14.10;99.90
41926;DHT22;27615;51.826;5.692;2023-03-31T11:30:45;14.10;99.90
41926;DHT22;27615;51.826;5.692;2023-03-31T11:33:23;14.10;99.90
41926;DHT22;27615;51.826;5.692;2023-03-31T11:36:12;14.00;99.90
41926;DHT22;27615;51.826;5.692;2023-03-31T11:39:02;14.00;99.90
41926;DHT22;27615;51.826;5.692;2023-03-31T11:41:39;14.00;99.90
41926;DHT22;27615;51.826;5.692;2023-03-31T11:44:14;14.00;99.90
41926;DHT22;27615;51.826;5.692;2023-03-31T11:51:59;14.00;99.90
41926;DHT22;27615;51.826;5.692;2023-03-31T11:57:29;14.00;99.90
41926;DHT22;27615;51.826;5.692;2023-03-31T11:59:59;14.00;99.90
41926;DHT22;27615;51.826;5.692;2023-03-31T12:05:31;14.00;99.90
41926;DHT22;27615;51.826;5.692;2023-03-31T12:10:51;14.10;99.90
41926;DHT22;27615;51.826;5.692;2023-03-31T12:16:41;14.20;99.90
41926;DHT22;27615;51.826;5.692;2023-03-31T12:21:42;14.10;99.90
41926;DHT22;27615;51.826;5.692;2023-03-31T12:24:11;14.00;99.90
41926;DHT22;27615;51.826;5.692;2023-03-31T12:29:29;13.90;99.90
41926;DHT22;27615;51.826;5.692;2023-03-31T12:31:59;13.80;99.90
41926;DHT22;27615;51.826;5.692;2023-03-31T12:34:25;13.80;99.90
41926;DHT22;27615;51.826;5.692;2023-03-31T12:53:52;12.90;99.90
41926;DHT22;27615;51.826;5.692;2023-03-31T12:56:21;12.90;99.90
41926;DHT22;27615;51.826;5.692;2023-03-31T12:58:47;12.90;99.90
41926;DHT22;27615;51.826;5.692;2023-03-31T13:01:22;13.00;99.90
41926;DHT22;27615;51.826;5.692;2023-03-31T13:08:51;13.30;99.90
41926;DHT22;27615;51.826;5.692;2023-03-31T13:11:20;13.40;99.90
41926;DHT22;27615;51.826;5.692;2023-03-31T13:14:00;13.40;99.90
41926;DHT22;27615;51.826;5.692;2023-03-31T13:16:33;13.40;99.90
41926;DHT22;27615;51.826;5.692;2023-03-31T13:19:00;13.40;99.90
41926;DHT22;27615;51.826;5.692;2023-03-31T13:21:25;13.30;99.90
41926;DHT22;27615;51.826;5.692;2023-03-31T13:23:51;13.30;99.90
41926;DHT22;27615;51.826;5.692;2023-03-31T13:26:39;13.30;99.90
41926;DHT22;27615;51.826;5.692;2023-03-31T13:34:38;13.10;99.90
41926;DHT22;27615;51.826;5.692;2023-03-31T13:40:04;12.70;99.90
41926;DHT22;27615;51.826;5.692;2023-03-31T13:42:52;12.50;99.90
41926;DHT22;27615;51.826;5.692;2023-03-31T14:07:16;12.60;99.90
41926;DHT22;27615;51.826;5.692;2023-03-31T14:09:44;12.70;99.90
41926;DHT22;27615;51.826;5.692;2023-03-31T14:12:31;12.80;99.90
41926;DHT22;27615;51.826;5.692;2023-03-31T14:14:57;12.80;99.90
41926;DHT22;27615;51.826;5.692;2023-03-31T14:17:26;12.90;99.90
41926;DHT22;27615;51.826;5.692;2023-03-31T14:23:23;12.90;99.90
41926;DHT22;27615;51.826;5.692;2023-03-31T14:26:10;12.90;99.90
41926;DHT22;27615;51.826;5.692;2023-03-31T14:31:37;12.80;99.90
41926;DHT22;27615;51.826;5.692;2023-03-31T14:37:09;12.80;99.90
41926;DHT22;27615;51.826;5.692;2023-03-31T14:39:40;12.60;99.90
41926;DHT22;27615;51.826;5.692;2023-03-31T14:42:16;12.40;99.90
41926;DHT22;27615;51.826;5.692;2023-03-31T14:44:43;12.40;99.90
41926;DHT22;27615;51.826;5.692;2023-03-31T14:47:24;12.30;99.90
41926;DHT22;27615;51.826;5.692;2023-03-31T14:50:14;12.10;99.90
41926;DHT22;27615;51.826;5.692;2023-03-31T14:52:51;11.90;99.90
41926;DHT22;27615;51.826;5.692;2023-03-31T14:55:21;11.90;99.90
41926;DHT22;27615;51.826;5.692;2023-03-31T14:57:48;11.90;99.90
41926;DHT22;27615;51.826;5.692;2023-03-31T15:00:21;11.90;99.90
41926;DHT22;27615;51.826;5.692;2023-03-31T15:02:48;11.90;99.90
41926;DHT22;27615;51.826;5.692;2023-03-31T15:05:33;11.90;99.90
41926;DHT22;27615;51.826;5.692;2023-03-31T15:08:02;12.00;99.90
41926;DHT22;27615;51.826;5.692;2023-03-31T15:10:34;12.00;99.90
41926;DHT22;27615;51.826;5.692;2023-03-31T15:13:06;12.00;99.90
41926;DHT22;27615;51.826;5.692;2023-03-31T15:15:32;12.00;99.90
41926;DHT22;27615;51.826;5.692;2023-03-31T15:17:57;12.10;99.90
41926;DHT22;27615;51.826;5.692;2023-03-31T15:20:30;12.10;99.90
41926;DHT22;27615;51.826;5.692;2023-03-31T15:22:58;12.10;99.90
41926;DHT22;27615;51.826;5.692;2023-03-31T15:25:33;12.10;99.90
41926;DHT22;27615;51.826;5.692;2023-03-31T15:28:04;12.00;99.90
41926;DHT22;27615;51.826;5.692;2023-03-31T15:30:31;12.00;99.90
41926;DHT22;27615;51.826;5.692;2023-03-31T15:32:57;11.90;99.90
41926;DHT22;27615;51.826;5.692;2023-03-31T15:35:28;11.90;99.90
41926;DHT22;27615;51.826;5.692;2023-03-31T15:37:56;11.90;99.90
41926;DHT22;27615;51.826;5.692;2023-03-31T15:43:26;11.80;99.90
41926;DHT22;27615;51.826;5.692;2023-03-31T15:45:47;11.90;99.90
41926;DHT22;27615;51.826;5.692;2023-03-31T15:51:04;11.90;99.90
41926;DHT22;27615;51.826;5.692;2023-03-31T15:53:48;11.90;99.90
41926;DHT22;27615;51.826;5.692;2023-03-31T15:56:36;11.90;99.90
41926;DHT22;27615;51.826;5.692;2023-03-31T15:59:05;11.80;99.90
41926;DHT22;27615;51.826;5.692;2023-03-31T16:01:34;11.80;99.90
41926;DHT22;27615;51.826;5.692;2023-03-31T16:04:06;11.70;99.90
41926;DHT22;27615;51.826;5.692;2023-03-31T16:06:45;11.70;99.90
41926;DHT22;27615;51.826;5.692;2023-03-31T16:09:13;11.70;99.90
41926;DHT22;27615;51.826;5.692;2023-03-31T16:11:44;11.60;99.90
41926;DHT22;27615;51.826;5.692;2023-03-31T16:14:17;11.60;99.90
41926;DHT22;27615;51.826;5.692;2023-03-31T16:16:47;11.60;99.90
41926;DHT22;27615;51.826;5.692;2023-03-31T16:19:13;11.60;99.90
41926;DHT22;27615;51.826;5.692;2023-03-31T16:21:43;11.60;99.90
41926;DHT22;27615;51.826;5.692;2023-03-31T16:24:12;11.60;99.90
41926;DHT22;27615;51.826;5.692;2023-03-31T16:26:39;11.60;99.90
41926;DHT22;27615;51.826;5.692;2023-03-31T16:29:04;11.50;99.90
41926;DHT22;27615;51.826;5.692;2023-03-31T16:31:35;11.50;99.90
41926;DHT22;27615;51.826;5.692;2023-03-31T16:34:06;11.50;99.90
41926;DHT22;27615;51.826;5.692;2023-03-31T16:36:32;11.50;99.90
41926;DHT22;27615;51.826;5.692;2023-03-31T16:38:58;11.40;99.90
41926;DHT22;27615;51.826;5.692;2023-03-31T16:41:27;11.40;99.90
41926;DHT22;27615;51.826;5.692;2023-03-31T16:43:53;11.30;99.90
41926;DHT22;27615;51.826;5.692;2023-03-31T16:46:19;11.30;99.90
41926;DHT22;27615;51.826;5.692;2023-03-31T16:48:46;11.20;99.90
41926;DHT22;27615;51.826;5.692;2023-03-31T16:51:11;11.10;99.90
41926;DHT22;27615;51.826;5.692;2023-03-31T16:53:37;11.10;99.90
41926;DHT22;27615;51.826;5.692;2023-03-31T16:56:05;11.00;99.90
41926;DHT22;27615;51.826;5.692;2023-03-31T16:58:35;11.00;99.90
41926;DHT22;27615;51.826;5.692;2023-03-31T17:01:03;11.00;99.90
41926;DHT22;27615;51.826;5.692;2023-03-31T17:03:29;11.00;99.90
41926;DHT22;27615;51.826;5.692;2023-03-31T17:05:56;11.00;99.90
41926;DHT22;27615;51.826;5.692;2023-03-31T17:08:24;11.00;99.90
41926;DHT22;27615;51.826;5.692;2023-03-31T17:11:04;11.00;99.90
41926;DHT22;27615;51.826;5.692;2023-03-31T17:13:31;11.00;99.90
41926;DHT22;27615;51.826;5.692;2023-03-31T17:15:58;11.00;99.90
41926;DHT22;27615;51.826;5.692;2023-03-31T17:18:24;11.00;99.90
41926;DHT22;27615;51.826;5.692;2023-03-31T17:20:51;11.00;99.90
41926;DHT22;27615;51.826;5.692;2023-03-31T17:23:18;11.00;99.90
41926;DHT22;27615;51.826;5.692;2023-03-31T17:25:48;11.00;99.90
41926;DHT22;27615;51.826;5.692;2023-03-31T17:28:15;11.00;99.90
41926;DHT22;27615;51.826;5.692;2023-03-31T17:30:41;11.00;99.90
41926;DHT22;27615;51.826;5.692;2023-03-31T17:33:09;11.00;99.90
41926;DHT22;27615;51.826;5.692;2023-03-31T17:35:36;11.00;99.90
41926;DHT22;27615;51.826;5.692;2023-03-31T17:38:01;11.00;99.90
41926;DHT22;27615;51.826;5.692;2023-03-31T17:40:28;11.00;99.90
41926;DHT22;27615;51.826;5.692;2023-03-31T17:42:58;11.00;99.90
41926;DHT22;27615;51.826;5.692;2023-03-31T17:45:23;11.00;99.90
41926;DHT22;27615;51.826;5.692;2023-03-31T17:47:49;11.00;99.90
41926;DHT22;27615;51.826;5.692;2023-03-31T17:50:16;11.00;99.90
41926;DHT22;27615;51.826;5.692;2023-03-31T17:52:41;11.00;99.90
41926;DHT22;27615;51.826;5.692;2023-03-31T17:55:07;10.90;99.90
41926;DHT22;27615;51.826;5.692;2023-03-31T17:57:33;10.90;99.90
41926;DHT22;27615;51.826;5.692;2023-03-31T18:00:01;10.90;99.90
41926;DHT22;27615;51.826;5.692;2023-03-31T18:02:27;10.80;99.90
41926;DHT22;27615;51.826;5.692;2023-03-31T18:04:53;10.80;99.90
41926;DHT22;27615;51.826;5.692;2023-03-31T18:07:19;10.80;99.90
41926;DHT22;27615;51.826;5.692;2023-03-31T18:09:47;10.70;99.90
41926;DHT22;27615;51.826;5.692;2023-03-31T18:12:13;10.70;99.90
41926;DHT22;27615;51.826;5.692;2023-03-31T18:14:38;10.70;99.90
41926;DHT22;27615;51.826;5.692;2023-03-31T18:17:04;10.70;99.90
41926;DHT22;27615;51.826;5.692;2023-03-31T18:19:30;10.60;99.90
41926;DHT22;27615;51.826;5.692;2023-03-31T18:21:56;10.60;99.90
41926;DHT22;27615;51.826;5.692;2023-03-31T18:24:21;10.50;99.90
41926;DHT22;27615;51.826;5.692;2023-03-31T18:26:48;10.50;99.90
41926;DHT22;27615;51.826;5.692;2023-03-31T18:29:14;10.50;99.90